sensor_id;sensor_type;location;lat;lon;timestamp;P1;durP1;ratioP1;P2;durP2;ratioP2
14698;SDS011;7439;50.804;4.602;2022-12-07T00:01:04;158.77;;;150.50;;
14698;SDS011;7439;50.804;4.602;2022-12-07T00:03:32;152.57;;;144.63;;
14698;SDS011;7439;50.804;4.602;2022-12-07T00:05:59;153.73;;;145.80;;
14698;SDS011;7439;50.804;4.602;2022-12-07T00:08:26;166.87;;;158.40;;
14698;SDS011;7439;50.804;4.602;2022-12-07T00:10:59;163.63;;;155.03;;
14698;SDS011;7439;50.804;4.602;2022-12-07T00:13:27;166.50;;;157.83;;
14698;SDS011;7439;50.804;4.602;2022-12-07T00:15:54;182.73;;;173.43;;
14698;SDS011;7439;50.804;4.602;2022-12-07T00:18:22;186.00;;;176.57;;
14698;SDS011;7439;50.804;4.602;2022-12-07T00:20:49;191.07;;;181.93;;
14698;SDS011;7439;50.804;4.602;2022-12-07T00:23:17;184.87;;;175.50;;
14698;SDS011;7439;50.804;4.602;2022-12-07T00:25:44;188.97;;;179.67;;
14698;SDS011;7439;50.804;4.602;2022-12-07T00:28:14;186.00;;;176.83;;
14698;SDS011;7439;50.804;4.602;2022-12-07T00:30:41;191.27;;;182.00;;
14698;SDS011;7439;50.804;4.602;2022-12-07T00:33:09;191.37;;;181.83;;
14698;SDS011;7439;50.804;4.602;2022-12-07T00:35:36;199.43;;;188.67;;
14698;SDS011;7439;50.804;4.602;2022-12-07T00:38:04;197.60;;;187.67;;
14698;SDS011;7439;50.804;4.602;2022-12-07T00:40:31;203.30;;;193.27;;
14698;SDS011;7439;50.804;4.602;2022-12-07T00:42:58;202.93;;;192.77;;
14698;SDS011;7439;50.804;4.602;2022-12-07T00:45:27;194.17;;;184.53;;
14698;SDS011;7439;50.804;4.602;2022-12-07T00:47:55;194.53;;;184.50;;
14698;SDS011;7439;50.804;4.602;2022-12-07T00:50:22;203.83;;;194.23;;
14698;SDS011;7439;50.804;4.602;2022-12-07T00:52:51;210.63;;;200.40;;
14698;SDS011;7439;50.804;4.602;2022-12-07T00:55:19;209.57;;;198.80;;
14698;SDS011;7439;50.804;4.602;2022-12-07T00:57:46;215.60;;;204.13;;
14698;SDS011;7439;50.804;4.602;2022-12-07T01:00:14;218.13;;;206.47;;
14698;SDS011;7439;50.804;4.602;2022-12-07T01:02:43;214.77;;;203.07;;
14698;SDS011;7439;50.804;4.602;2022-12-07T01:05:10;218.10;;;206.00;;
14698;SDS011;7439;50.804;4.602;2022-12-07T01:07:37;232.97;;;219.67;;
14698;SDS011;7439;50.804;4.602;2022-12-07T01:10:05;223.30;;;210.50;;
14698;SDS011;7439;50.804;4.602;2022-12-07T01:12:33;226.43;;;214.23;;
14698;SDS011;7439;50.804;4.602;2022-12-07T01:15:00;239.77;;;226.40;;
14698;SDS011;7439;50.804;4.602;2022-12-07T01:17:28;224.43;;;213.13;;
14698;SDS011;7439;50.804;4.602;2022-12-07T01:19:57;210.50;;;200.13;;
14698;SDS011;7439;50.804;4.602;2022-12-07T01:22:24;204.57;;;194.23;;
14698;SDS011;7439;50.804;4.602;2022-12-07T01:24:52;214.00;;;203.37;;
14698;SDS011;7439;50.804;4.602;2022-12-07T01:27:20;213.60;;;202.20;;
14698;SDS011;7439;50.804;4.602;2022-12-07T01:29:47;210.30;;;199.50;;
14698;SDS011;7439;50.804;4.602;2022-12-07T01:32:14;209.40;;;198.27;;
14698;SDS011;7439;50.804;4.602;2022-12-07T01:34:42;200.03;;;189.60;;
14698;SDS011;7439;50.804;4.602;2022-12-07T01:37:10;204.03;;;193.77;;
14698;SDS011;7439;50.804;4.602;2022-12-07T01:39:38;205.50;;;195.40;;
14698;SDS011;7439;50.804;4.602;2022-12-07T01:42:07;219.40;;;208.43;;
14698;SDS011;7439;50.804;4.602;2022-12-07T01:47:17;210.63;;;199.73;;
14698;SDS011;7439;50.804;4.602;2022-12-07T01:49:45;221.87;;;210.97;;
14698;SDS011;7439;50.804;4.602;2022-12-07T01:52:15;225.17;;;214.23;;
14698;SDS011;7439;50.804;4.602;2022-12-07T01:54:45;224.37;;;213.40;;
14698;SDS011;7439;50.804;4.602;2022-12-07T01:57:13;214.73;;;203.57;;
14698;SDS011;7439;50.804;4.602;2022-12-07T01:59:42;210.97;;;200.70;;
14698;SDS011;7439;50.804;4.602;2022-12-07T02:02:12;214.97;;;204.03;;
14698;SDS011;7439;50.804;4.602;2022-12-07T02:04:42;216.63;;;206.07;;
14698;SDS011;7439;50.804;4.602;2022-12-07T02:07:10;222.33;;;211.43;;
14698;SDS011;7439;50.804;4.602;2022-12-07T02:09:39;220.43;;;209.40;;
14698;SDS011;7439;50.804;4.602;2022-12-07T02:12:07;216.23;;;205.17;;
14698;SDS011;7439;50.804;4.602;2022-12-07T02:14:34;217.10;;;205.87;;
14698;SDS011;7439;50.804;4.602;2022-12-07T02:17:05;196.83;;;186.53;;
14698;SDS011;7439;50.804;4.602;2022-12-07T02:22:28;187.20;;;177.23;;
14698;SDS011;7439;50.804;4.602;2022-12-07T02:25:06;191.97;;;181.63;;
14698;SDS011;7439;50.804;4.602;2022-12-07T02:27:40;187.33;;;177.37;;
14698;SDS011;7439;50.804;4.602;2022-12-07T02:30:12;201.47;;;190.83;;
14698;SDS011;7439;50.804;4.602;2022-12-07T02:32:42;217.53;;;205.83;;
14698;SDS011;7439;50.804;4.602;2022-12-07T02:35:11;217.17;;;206.33;;
14698;SDS011;7439;50.804;4.602;2022-12-07T02:37:40;240.13;;;227.93;;
14698;SDS011;7439;50.804;4.602;2022-12-07T02:40:09;246.03;;;233.73;;
14698;SDS011;7439;50.804;4.602;2022-12-07T02:42:39;238.93;;;227.10;;
14698;SDS011;7439;50.804;4.602;2022-12-07T02:45:09;238.13;;;225.83;;
14698;SDS011;7439;50.804;4.602;2022-12-07T02:47:39;248.00;;;235.47;;
14698;SDS011;7439;50.804;4.602;2022-12-07T02:50:07;245.70;;;231.07;;
14698;SDS011;7439;50.804;4.602;2022-12-07T02:52:34;265.47;;;245.23;;
14698;SDS011;7439;50.804;4.602;2022-12-07T02:55:02;258.17;;;239.67;;
14698;SDS011;7439;50.804;4.602;2022-12-07T02:57:35;258.30;;;240.43;;
14698;SDS011;7439;50.804;4.602;2022-12-07T03:00:06;249.67;;;234.67;;
14698;SDS011;7439;50.804;4.602;2022-12-07T03:02:36;240.10;;;226.20;;
14698;SDS011;7439;50.804;4.602;2022-12-07T03:05:10;247.33;;;234.63;;
14698;SDS011;7439;50.804;4.602;2022-12-07T03:07:42;254.60;;;239.97;;
14698;SDS011;7439;50.804;4.602;2022-12-07T03:10:14;273.40;;;257.97;;
14698;SDS011;7439;50.804;4.602;2022-12-07T03:12:45;261.37;;;246.43;;
14698;SDS011;7439;50.804;4.602;2022-12-07T03:15:14;269.07;;;254.13;;
14698;SDS011;7439;50.804;4.602;2022-12-07T03:17:44;265.90;;;251.63;;
14698;SDS011;7439;50.804;4.602;2022-12-07T03:20:15;270.73;;;256.83;;
14698;SDS011;7439;50.804;4.602;2022-12-07T03:22:45;281.03;;;267.00;;
14698;SDS011;7439;50.804;4.602;2022-12-07T03:25:14;286.77;;;271.77;;
14698;SDS011;7439;50.804;4.602;2022-12-07T03:27:44;298.70;;;284.00;;
14698;SDS011;7439;50.804;4.602;2022-12-07T03:30:14;299.50;;;284.27;;
14698;SDS011;7439;50.804;4.602;2022-12-07T03:32:43;296.13;;;281.10;;
14698;SDS011;7439;50.804;4.602;2022-12-07T03:35:12;298.20;;;284.17;;
14698;SDS011;7439;50.804;4.602;2022-12-07T03:37:44;295.57;;;281.40;;
14698;SDS011;7439;50.804;4.602;2022-12-07T03:40:13;302.20;;;287.63;;
14698;SDS011;7439;50.804;4.602;2022-12-07T03:42:42;301.07;;;284.47;;
14698;SDS011;7439;50.804;4.602;2022-12-07T03:45:10;295.53;;;279.60;;
14698;SDS011;7439;50.804;4.602;2022-12-07T03:47:40;275.83;;;261.37;;
14698;SDS011;7439;50.804;4.602;2022-12-07T03:50:11;266.73;;;253.27;;
14698;SDS011;7439;50.804;4.602;2022-12-07T03:52:40;276.17;;;262.00;;
14698;SDS011;7439;50.804;4.602;2022-12-07T03:55:12;265.23;;;252.67;;
14698;SDS011;7439;50.804;4.602;2022-12-07T03:57:41;283.93;;;270.03;;
14698;SDS011;7439;50.804;4.602;2022-12-07T04:00:10;292.57;;;278.50;;
14698;SDS011;7439;50.804;4.602;2022-12-07T04:02:38;304.77;;;289.03;;
14698;SDS011;7439;50.804;4.602;2022-12-07T04:05:06;309.83;;;293.37;;
14698;SDS011;7439;50.804;4.602;2022-12-07T04:07:34;302.10;;;286.00;;
14698;SDS011;7439;50.804;4.602;2022-12-07T04:10:01;308.63;;;292.63;;
14698;SDS011;7439;50.804;4.602;2022-12-07T04:12:30;302.67;;;287.70;;
14698;SDS011;7439;50.804;4.602;2022-12-07T04:14:58;321.53;;;305.50;;
14698;SDS011;7439;50.804;4.602;2022-12-07T04:17:25;325.50;;;309.57;;
14698;SDS011;7439;50.804;4.602;2022-12-07T04:19:53;312.27;;;296.77;;
14698;SDS011;7439;50.804;4.602;2022-12-07T04:22:20;316.40;;;300.83;;
14698;SDS011;7439;50.804;4.602;2022-12-07T04:24:47;328.60;;;311.33;;
14698;SDS011;7439;50.804;4.602;2022-12-07T04:27:15;324.43;;;308.33;;
14698;SDS011;7439;50.804;4.602;2022-12-07T04:29:44;333.40;;;316.33;;
14698;SDS011;7439;50.804;4.602;2022-12-07T04:32:11;336.97;;;319.83;;
14698;SDS011;7439;50.804;4.602;2022-12-07T04:34:38;334.97;;;319.13;;
14698;SDS011;7439;50.804;4.602;2022-12-07T04:37:06;343.83;;;326.97;;
14698;SDS011;7439;50.804;4.602;2022-12-07T04:39:33;352.17;;;335.57;;
14698;SDS011;7439;50.804;4.602;2022-12-07T04:42:01;348.70;;;332.03;;
14698;SDS011;7439;50.804;4.602;2022-12-07T04:44:28;351.67;;;335.37;;
14698;SDS011;7439;50.804;4.602;2022-12-07T04:46:57;362.07;;;344.67;;
14698;SDS011;7439;50.804;4.602;2022-12-07T04:49:25;369.30;;;351.30;;
14698;SDS011;7439;50.804;4.602;2022-12-07T04:51:52;368.40;;;350.17;;
14698;SDS011;7439;50.804;4.602;2022-12-07T04:54:20;370.70;;;352.93;;
14698;SDS011;7439;50.804;4.602;2022-12-07T04:56:47;374.40;;;357.17;;
14698;SDS011;7439;50.804;4.602;2022-12-07T04:59:15;377.47;;;359.07;;
14698;SDS011;7439;50.804;4.602;2022-12-07T05:01:43;386.40;;;368.50;;
14698;SDS011;7439;50.804;4.602;2022-12-07T05:04:12;388.83;;;370.30;;
14698;SDS011;7439;50.804;4.602;2022-12-07T05:06:41;380.50;;;362.83;;
14698;SDS011;7439;50.804;4.602;2022-12-07T05:09:08;391.07;;;372.80;;
14698;SDS011;7439;50.804;4.602;2022-12-07T05:11:36;381.60;;;363.53;;
14698;SDS011;7439;50.804;4.602;2022-12-07T05:14:07;377.50;;;359.37;;
14698;SDS011;7439;50.804;4.602;2022-12-07T05:16:35;381.30;;;363.50;;
14698;SDS011;7439;50.804;4.602;2022-12-07T05:19:03;356.27;;;340.13;;
14698;SDS011;7439;50.804;4.602;2022-12-07T05:21:32;360.17;;;344.17;;
14698;SDS011;7439;50.804;4.602;2022-12-07T05:23:59;355.30;;;338.37;;
14698;SDS011;7439;50.804;4.602;2022-12-07T05:26:27;363.83;;;346.67;;
14698;SDS011;7439;50.804;4.602;2022-12-07T05:28:55;359.40;;;343.20;;
14698;SDS011;7439;50.804;4.602;2022-12-07T05:31:23;379.33;;;361.97;;
14698;SDS011;7439;50.804;4.602;2022-12-07T05:33:51;373.33;;;356.47;;
14698;SDS011;7439;50.804;4.602;2022-12-07T05:36:18;368.23;;;351.53;;
14698;SDS011;7439;50.804;4.602;2022-12-07T05:38:47;371.90;;;355.00;;
14698;SDS011;7439;50.804;4.602;2022-12-07T05:41:16;383.03;;;365.77;;
14698;SDS011;7439;50.804;4.602;2022-12-07T05:44:01;363.30;;;346.77;;
14698;SDS011;7439;50.804;4.602;2022-12-07T05:46:29;360.27;;;343.90;;
14698;SDS011;7439;50.804;4.602;2022-12-07T05:48:56;352.60;;;336.47;;
14698;SDS011;7439;50.804;4.602;2022-12-07T05:51:24;351.27;;;335.50;;
14698;SDS011;7439;50.804;4.602;2022-12-07T05:53:53;364.57;;;347.80;;
14698;SDS011;7439;50.804;4.602;2022-12-07T05:56:20;365.93;;;349.67;;
14698;SDS011;7439;50.804;4.602;2022-12-07T05:58:47;366.67;;;349.83;;
14698;SDS011;7439;50.804;4.602;2022-12-07T06:01:32;369.33;;;352.27;;
14698;SDS011;7439;50.804;4.602;2022-12-07T06:04:00;366.30;;;349.23;;
14698;SDS011;7439;50.804;4.602;2022-12-07T06:06:27;372.77;;;355.57;;
14698;SDS011;7439;50.804;4.602;2022-12-07T06:08:56;380.83;;;363.70;;
14698;SDS011;7439;50.804;4.602;2022-12-07T06:11:23;393.07;;;375.43;;
14698;SDS011;7439;50.804;4.602;2022-12-07T06:14:08;385.00;;;367.33;;
14698;SDS011;7439;50.804;4.602;2022-12-07T06:16:35;383.67;;;366.47;;
14698;SDS011;7439;50.804;4.602;2022-12-07T06:19:03;387.13;;;369.37;;
14698;SDS011;7439;50.804;4.602;2022-12-07T06:21:30;381.07;;;363.73;;
14698;SDS011;7439;50.804;4.602;2022-12-07T06:23:59;386.03;;;368.60;;
14698;SDS011;7439;50.804;4.602;2022-12-07T06:26:27;386.70;;;369.30;;
14698;SDS011;7439;50.804;4.602;2022-12-07T06:28:54;391.90;;;374.50;;
14698;SDS011;7439;50.804;4.602;2022-12-07T06:31:22;376.20;;;359.00;;
14698;SDS011;7439;50.804;4.602;2022-12-07T06:33:49;391.80;;;374.20;;
14698;SDS011;7439;50.804;4.602;2022-12-07T06:36:16;379.43;;;362.63;;
14698;SDS011;7439;50.804;4.602;2022-12-07T06:38:44;379.23;;;361.83;;
14698;SDS011;7439;50.804;4.602;2022-12-07T06:41:13;378.93;;;362.00;;
14698;SDS011;7439;50.804;4.602;2022-12-07T06:43:40;373.03;;;356.43;;
14698;SDS011;7439;50.804;4.602;2022-12-07T06:46:07;381.27;;;363.67;;
14698;SDS011;7439;50.804;4.602;2022-12-07T06:48:35;384.73;;;367.20;;
14698;SDS011;7439;50.804;4.602;2022-12-07T06:51:02;380.30;;;362.43;;
14698;SDS011;7439;50.804;4.602;2022-12-07T06:53:30;385.03;;;366.53;;
14698;SDS011;7439;50.804;4.602;2022-12-07T06:55:57;385.30;;;368.10;;
14698;SDS011;7439;50.804;4.602;2022-12-07T06:58:26;387.73;;;370.40;;
14698;SDS011;7439;50.804;4.602;2022-12-07T07:00:53;397.63;;;379.50;;
14698;SDS011;7439;50.804;4.602;2022-12-07T07:03:20;409.37;;;390.67;;
14698;SDS011;7439;50.804;4.602;2022-12-07T07:05:48;393.17;;;373.90;;
14698;SDS011;7439;50.804;4.602;2022-12-07T07:08:15;397.50;;;379.10;;
14698;SDS011;7439;50.804;4.602;2022-12-07T07:10:43;408.37;;;389.33;;
14698;SDS011;7439;50.804;4.602;2022-12-07T07:13:10;405.53;;;386.93;;
14698;SDS011;7439;50.804;4.602;2022-12-07T07:15:39;412.20;;;392.80;;
14698;SDS011;7439;50.804;4.602;2022-12-07T07:18:07;420.33;;;401.50;;
14698;SDS011;7439;50.804;4.602;2022-12-07T07:20:34;426.07;;;406.70;;
14698;SDS011;7439;50.804;4.602;2022-12-07T07:23:01;419.40;;;400.47;;
14698;SDS011;7439;50.804;4.602;2022-12-07T07:25:29;413.63;;;394.50;;
14698;SDS011;7439;50.804;4.602;2022-12-07T07:27:56;411.57;;;392.13;;
14698;SDS011;7439;50.804;4.602;2022-12-07T07:30:24;397.37;;;378.63;;
14698;SDS011;7439;50.804;4.602;2022-12-07T07:32:55;389.50;;;372.13;;
14698;SDS011;7439;50.804;4.602;2022-12-07T07:35:22;402.53;;;384.33;;
14698;SDS011;7439;50.804;4.602;2022-12-07T07:37:50;404.00;;;386.03;;
14698;SDS011;7439;50.804;4.602;2022-12-07T07:40:17;404.23;;;385.07;;
14698;SDS011;7439;50.804;4.602;2022-12-07T07:42:46;404.30;;;386.10;;
14698;SDS011;7439;50.804;4.602;2022-12-07T07:45:14;415.20;;;396.40;;
14698;SDS011;7439;50.804;4.602;2022-12-07T07:47:41;409.93;;;391.67;;
14698;SDS011;7439;50.804;4.602;2022-12-07T07:50:10;406.80;;;388.37;;
14698;SDS011;7439;50.804;4.602;2022-12-07T07:52:38;403.63;;;385.23;;
14698;SDS011;7439;50.804;4.602;2022-12-07T07:55:06;404.27;;;385.47;;
14698;SDS011;7439;50.804;4.602;2022-12-07T07:57:33;412.43;;;393.20;;
14698;SDS011;7439;50.804;4.602;2022-12-07T08:00:01;405.20;;;385.90;;
14698;SDS011;7439;50.804;4.602;2022-12-07T08:02:28;407.43;;;388.47;;
14698;SDS011;7439;50.804;4.602;2022-12-07T08:04:56;380.63;;;363.07;;
14698;SDS011;7439;50.804;4.602;2022-12-07T08:07:24;392.83;;;374.23;;
14698;SDS011;7439;50.804;4.602;2022-12-07T08:09:52;386.67;;;367.43;;
14698;SDS011;7439;50.804;4.602;2022-12-07T08:12:19;407.80;;;388.60;;
14698;SDS011;7439;50.804;4.602;2022-12-07T08:14:47;398.90;;;380.30;;
14698;SDS011;7439;50.804;4.602;2022-12-07T08:17:14;419.20;;;398.17;;
14698;SDS011;7439;50.804;4.602;2022-12-07T08:19:41;422.27;;;402.77;;
14698;SDS011;7439;50.804;4.602;2022-12-07T08:22:09;424.87;;;405.53;;
14698;SDS011;7439;50.804;4.602;2022-12-07T08:24:37;431.03;;;411.40;;
14698;SDS011;7439;50.804;4.602;2022-12-07T08:27:05;433.33;;;413.20;;
14698;SDS011;7439;50.804;4.602;2022-12-07T08:29:32;426.57;;;406.20;;
14698;SDS011;7439;50.804;4.602;2022-12-07T08:32:00;432.23;;;411.60;;
14698;SDS011;7439;50.804;4.602;2022-12-07T08:34:27;431.20;;;410.67;;
14698;SDS011;7439;50.804;4.602;2022-12-07T08:36:54;437.13;;;415.93;;
14698;SDS011;7439;50.804;4.602;2022-12-07T08:39:22;432.20;;;411.97;;
14698;SDS011;7439;50.804;4.602;2022-12-07T08:41:50;396.77;;;377.87;;
14698;SDS011;7439;50.804;4.602;2022-12-07T08:44:18;338.63;;;323.03;;
14698;SDS011;7439;50.804;4.602;2022-12-07T08:46:46;319.67;;;304.30;;
14698;SDS011;7439;50.804;4.602;2022-12-07T08:49:15;343.80;;;327.60;;
14698;SDS011;7439;50.804;4.602;2022-12-07T08:51:43;346.00;;;329.97;;
14698;SDS011;7439;50.804;4.602;2022-12-07T08:54:12;383.47;;;365.47;;
14698;SDS011;7439;50.804;4.602;2022-12-07T08:56:41;433.80;;;414.30;;
14698;SDS011;7439;50.804;4.602;2022-12-07T08:59:10;479.30;;;457.73;;
14698;SDS011;7439;50.804;4.602;2022-12-07T09:01:39;541.83;;;517.47;;
14698;SDS011;7439;50.804;4.602;2022-12-07T09:04:06;593.90;;;566.60;;
14698;SDS011;7439;50.804;4.602;2022-12-07T09:06:34;616.37;;;588.67;;
14698;SDS011;7439;50.804;4.602;2022-12-07T09:09:01;624.50;;;596.33;;
14698;SDS011;7439;50.804;4.602;2022-12-07T09:11:29;628.97;;;600.67;;
14698;SDS011;7439;50.804;4.602;2022-12-07T09:13:56;661.60;;;631.43;;
14698;SDS011;7439;50.804;4.602;2022-12-07T09:16:25;648.07;;;618.03;;
14698;SDS011;7439;50.804;4.602;2022-12-07T09:18:53;604.83;;;577.77;;
14698;SDS011;7439;50.804;4.602;2022-12-07T09:21:20;554.80;;;530.10;;
14698;SDS011;7439;50.804;4.602;2022-12-07T09:23:48;532.40;;;509.23;;
14698;SDS011;7439;50.804;4.602;2022-12-07T09:26:15;501.23;;;479.50;;
14698;SDS011;7439;50.804;4.602;2022-12-07T09:28:43;497.70;;;476.47;;
14698;SDS011;7439;50.804;4.602;2022-12-07T09:31:10;485.87;;;465.27;;
14698;SDS011;7439;50.804;4.602;2022-12-07T09:33:39;455.17;;;435.73;;
14698;SDS011;7439;50.804;4.602;2022-12-07T09:36:06;428.10;;;410.13;;
14698;SDS011;7439;50.804;4.602;2022-12-07T09:38:34;418.67;;;400.93;;
14698;SDS011;7439;50.804;4.602;2022-12-07T09:41:04;391.73;;;375.23;;
14698;SDS011;7439;50.804;4.602;2022-12-07T09:43:32;393.57;;;377.17;;
14698;SDS011;7439;50.804;4.602;2022-12-07T09:46:01;373.80;;;358.57;;
14698;SDS011;7439;50.804;4.602;2022-12-07T09:48:29;365.93;;;350.70;;
14698;SDS011;7439;50.804;4.602;2022-12-07T09:51:00;345.43;;;330.40;;
14698;SDS011;7439;50.804;4.602;2022-12-07T09:53:29;337.10;;;323.30;;
14698;SDS011;7439;50.804;4.602;2022-12-07T09:55:57;360.00;;;344.93;;
14698;SDS011;7439;50.804;4.602;2022-12-07T09:58:26;366.93;;;351.40;;
14698;SDS011;7439;50.804;4.602;2022-12-07T10:00:55;368.70;;;353.33;;
14698;SDS011;7439;50.804;4.602;2022-12-07T10:03:23;382.07;;;365.87;;
14698;SDS011;7439;50.804;4.602;2022-12-07T10:05:51;400.37;;;383.67;;
14698;SDS011;7439;50.804;4.602;2022-12-07T10:08:20;418.07;;;400.73;;
14698;SDS011;7439;50.804;4.602;2022-12-07T10:10:49;448.80;;;428.70;;
14698;SDS011;7439;50.804;4.602;2022-12-07T10:13:19;450.47;;;431.17;;
14698;SDS011;7439;50.804;4.602;2022-12-07T10:15:48;451.07;;;432.13;;
14698;SDS011;7439;50.804;4.602;2022-12-07T10:18:17;455.33;;;436.03;;
14698;SDS011;7439;50.804;4.602;2022-12-07T10:20:46;478.17;;;457.60;;
14698;SDS011;7439;50.804;4.602;2022-12-07T10:23:14;488.80;;;467.57;;
14698;SDS011;7439;50.804;4.602;2022-12-07T10:25:43;495.17;;;473.67;;
14698;SDS011;7439;50.804;4.602;2022-12-07T10:28:12;493.07;;;471.50;;
14698;SDS011;7439;50.804;4.602;2022-12-07T10:30:46;474.93;;;454.23;;
14698;SDS011;7439;50.804;4.602;2022-12-07T10:33:19;465.20;;;445.07;;
14698;SDS011;7439;50.804;4.602;2022-12-07T10:35:54;451.17;;;431.87;;
14698;SDS011;7439;50.804;4.602;2022-12-07T10:38:21;440.00;;;420.87;;
14698;SDS011;7439;50.804;4.602;2022-12-07T10:40:50;426.73;;;408.73;;
14698;SDS011;7439;50.804;4.602;2022-12-07T10:43:29;424.83;;;407.00;;
14698;SDS011;7439;50.804;4.602;2022-12-07T10:48:45;455.00;;;436.03;;
14698;SDS011;7439;50.804;4.602;2022-12-07T10:51:16;469.27;;;450.07;;
14698;SDS011;7439;50.804;4.602;2022-12-07T10:53:47;414.87;;;398.53;;
14698;SDS011;7439;50.804;4.602;2022-12-07T10:59:19;499.07;;;477.57;;
14698;SDS011;7439;50.804;4.602;2022-12-07T11:01:50;509.90;;;487.77;;
14698;SDS011;7439;50.804;4.602;2022-12-07T11:04:22;491.50;;;470.37;;
14698;SDS011;7439;50.804;4.602;2022-12-07T11:06:53;450.23;;;431.40;;
14698;SDS011;7439;50.804;4.602;2022-12-07T11:09:29;421.77;;;404.47;;
14698;SDS011;7439;50.804;4.602;2022-12-07T11:11:59;410.33;;;393.07;;
14698;SDS011;7439;50.804;4.602;2022-12-07T11:14:31;399.33;;;382.70;;
14698;SDS011;7439;50.804;4.602;2022-12-07T11:17:04;384.03;;;368.80;;
14698;SDS011;7439;50.804;4.602;2022-12-07T11:19:46;372.00;;;357.30;;
14698;SDS011;7439;50.804;4.602;2022-12-07T11:22:19;376.47;;;361.17;;
14698;SDS011;7439;50.804;4.602;2022-12-07T11:24:49;374.23;;;359.23;;
14698;SDS011;7439;50.804;4.602;2022-12-07T11:27:23;380.87;;;365.80;;
14698;SDS011;7439;50.804;4.602;2022-12-07T11:35:19;409.93;;;393.03;;
14698;SDS011;7439;50.804;4.602;2022-12-07T11:37:49;405.17;;;388.63;;
14698;SDS011;7439;50.804;4.602;2022-12-07T11:40:20;351.30;;;337.20;;
14698;SDS011;7439;50.804;4.602;2022-12-07T11:42:55;258.80;;;248.10;;
14698;SDS011;7439;50.804;4.602;2022-12-07T11:45:23;139.90;;;133.57;;
14698;SDS011;7439;50.804;4.602;2022-12-07T11:47:51;91.77;;;87.27;;
14698;SDS011;7439;50.804;4.602;2022-12-07T11:50:25;130.00;;;124.37;;
14698;SDS011;7439;50.804;4.602;2022-12-07T11:52:55;162.63;;;155.73;;
14698;SDS011;7439;50.804;4.602;2022-12-07T11:55:26;122.80;;;117.70;;
14698;SDS011;7439;50.804;4.602;2022-12-07T11:57:56;159.03;;;152.73;;
14698;SDS011;7439;50.804;4.602;2022-12-07T12:00:25;168.70;;;161.97;;
14698;SDS011;7439;50.804;4.602;2022-12-07T12:02:53;173.57;;;166.77;;
14698;SDS011;7439;50.804;4.602;2022-12-07T12:05:25;122.47;;;117.27;;
14698;SDS011;7439;50.804;4.602;2022-12-07T12:07:54;147.70;;;142.00;;
14698;SDS011;7439;50.804;4.602;2022-12-07T12:10:35;89.90;;;86.23;;
14698;SDS011;7439;50.804;4.602;2022-12-07T12:13:15;62.10;;;59.27;;
14698;SDS011;7439;50.804;4.602;2022-12-07T12:15:49;243.00;;;233.93;;
14698;SDS011;7439;50.804;4.602;2022-12-07T12:18:36;167.50;;;160.83;;
14698;SDS011;7439;50.804;4.602;2022-12-07T12:21:09;148.63;;;142.10;;
14698;SDS011;7439;50.804;4.602;2022-12-07T12:23:39;61.13;;;58.23;;
14698;SDS011;7439;50.804;4.602;2022-12-07T12:26:08;42.57;;;40.27;;
14698;SDS011;7439;50.804;4.602;2022-12-07T12:28:41;43.73;;;41.63;;
14698;SDS011;7439;50.804;4.602;2022-12-07T12:31:17;86.80;;;83.03;;
14698;SDS011;7439;50.804;4.602;2022-12-07T12:33:59;201.57;;;193.47;;
14698;SDS011;7439;50.804;4.602;2022-12-07T12:36:43;271.30;;;261.30;;
14698;SDS011;7439;50.804;4.602;2022-12-07T12:39:11;310.90;;;299.40;;
14698;SDS011;7439;50.804;4.602;2022-12-07T12:41:55;273.60;;;263.43;;
14698;SDS011;7439;50.804;4.602;2022-12-07T12:44:39;240.47;;;231.53;;
14698;SDS011;7439;50.804;4.602;2022-12-07T12:47:37;246.40;;;237.27;;
14698;SDS011;7439;50.804;4.602;2022-12-07T12:50:12;224.53;;;216.03;;
14698;SDS011;7439;50.804;4.602;2022-12-07T12:52:48;211.53;;;203.17;;
14698;SDS011;7439;50.804;4.602;2022-12-07T12:55:18;196.37;;;188.57;;
14698;SDS011;7439;50.804;4.602;2022-12-07T12:57:47;178.00;;;171.17;;
14698;SDS011;7439;50.804;4.602;2022-12-07T13:00:15;88.40;;;84.83;;
14698;SDS011;7439;50.804;4.602;2022-12-07T13:02:47;29.83;;;28.37;;
14698;SDS011;7439;50.804;4.602;2022-12-07T13:05:16;40.63;;;38.27;;
14698;SDS011;7439;50.804;4.602;2022-12-07T13:07:56;39.57;;;37.20;;
14698;SDS011;7439;50.804;4.602;2022-12-07T13:15:49;100.10;;;96.00;;
14698;SDS011;7439;50.804;4.602;2022-12-07T13:18:23;115.77;;;111.13;;
14698;SDS011;7439;50.804;4.602;2022-12-07T13:20:54;122.03;;;117.10;;
14698;SDS011;7439;50.804;4.602;2022-12-07T13:23:32;108.30;;;103.87;;
14698;SDS011;7439;50.804;4.602;2022-12-07T13:26:02;117.80;;;113.20;;
14698;SDS011;7439;50.804;4.602;2022-12-07T13:28:35;112.97;;;107.87;;
14698;SDS011;7439;50.804;4.602;2022-12-07T13:31:13;103.50;;;99.13;;
14698;SDS011;7439;50.804;4.602;2022-12-07T13:33:42;95.47;;;90.83;;
14698;SDS011;7439;50.804;4.602;2022-12-07T13:36:12;87.07;;;83.37;;
14698;SDS011;7439;50.804;4.602;2022-12-07T13:38:49;76.77;;;73.27;;
14698;SDS011;7439;50.804;4.602;2022-12-07T13:41:17;72.73;;;69.53;;
14698;SDS011;7439;50.804;4.602;2022-12-07T13:43:45;68.80;;;65.47;;
14698;SDS011;7439;50.804;4.602;2022-12-07T13:46:14;55.67;;;53.17;;
14698;SDS011;7439;50.804;4.602;2022-12-07T13:48:44;51.43;;;48.70;;
14698;SDS011;7439;50.804;4.602;2022-12-07T13:51:16;53.30;;;50.60;;
14698;SDS011;7439;50.804;4.602;2022-12-07T13:53:46;53.53;;;50.93;;
14698;SDS011;7439;50.804;4.602;2022-12-07T13:56:15;57.30;;;54.43;;
14698;SDS011;7439;50.804;4.602;2022-12-07T13:58:42;50.77;;;48.33;;
14698;SDS011;7439;50.804;4.602;2022-12-07T14:01:10;51.47;;;49.17;;
14698;SDS011;7439;50.804;4.602;2022-12-07T14:03:38;48.77;;;46.57;;
14698;SDS011;7439;50.804;4.602;2022-12-07T14:06:26;50.63;;;48.17;;
14698;SDS011;7439;50.804;4.602;2022-12-07T14:09:06;48.47;;;46.17;;
14698;SDS011;7439;50.804;4.602;2022-12-07T14:11:35;44.70;;;42.10;;
14698;SDS011;7439;50.804;4.602;2022-12-07T14:14:04;42.43;;;40.07;;
14698;SDS011;7439;50.804;4.602;2022-12-07T14:16:33;41.30;;;39.00;;
14698;SDS011;7439;50.804;4.602;2022-12-07T14:19:02;37.97;;;36.00;;
14698;SDS011;7439;50.804;4.602;2022-12-07T14:21:31;40.00;;;37.70;;
14698;SDS011;7439;50.804;4.602;2022-12-07T14:24:03;39.33;;;37.63;;
14698;SDS011;7439;50.804;4.602;2022-12-07T14:26:36;40.13;;;38.23;;
14698;SDS011;7439;50.804;4.602;2022-12-07T14:29:29;41.77;;;39.20;;
14698;SDS011;7439;50.804;4.602;2022-12-07T14:31:57;39.47;;;37.57;;
14698;SDS011;7439;50.804;4.602;2022-12-07T14:34:24;38.37;;;36.10;;
14698;SDS011;7439;50.804;4.602;2022-12-07T14:36:52;36.53;;;34.50;;
14698;SDS011;7439;50.804;4.602;2022-12-07T14:39:19;103.07;;;98.30;;
14698;SDS011;7439;50.804;4.602;2022-12-07T14:41:48;332.33;;;318.97;;
14698;SDS011;7439;50.804;4.602;2022-12-07T14:44:19;315.00;;;302.40;;
14698;SDS011;7439;50.804;4.602;2022-12-07T14:46:47;314.77;;;302.43;;